Details From NCAI - Aitutaki
To NCRG - Rarotonga Intl
Flight Number -
Tags Decoded
Created
Modified
Stats Distance 170 nm / 314 km
Max Altitude 0 ft / 0 m
Waypoints 4
Social Downloads 1
Likes 0
Share VATSIM

Download

Looking for another format? Having issues loading an existing format? Contact us
Advertisement - Login to hide

Notes

Decoded

Route

NCAI PAIA LIKU NCRG

ID Type Via Altitude Latitude Longitude Leg Dist Tot Dist Heading (true) Name
O NCAI APT - 0 ft / 0 m -18.82753˚ -159.77681˚ - 0 nm - -
PAIA FIX - 0 ft / 0 m -20.92350˚ -160.26433˚ 128 nm 128 nm 192° / 192° -
LIKU FIX - 0 ft / 0 m -21.09183˚ -160.33882˚ 10 nm 139 nm 202° / 202° -
O NCRG APT - 0 ft / 0 m -21.20274˚ -159.81677˚ 29 nm 169 nm 103° / 103° -

Altitude Profile

Advertisement - Login to hide

Weather


0- 5 10 15 20 25 30 35+ Temperature / ° C

Clouds and Precipitation
Forecast for 2017-12-11 12:00 UTC. Updated 21 minutes ago

Ground ~20,000 ft ~40,000 ft Winds

NCAI

Details ICAO NCAI (AIT)
Name Aitutaki
Region Cook Islands
Timezone Unknown (UTC+0.0)
Stats Elevation 20 ft / 6 m (AMSL)
Location -18.837078° -159.761026°
Runways 1
Magnetic Variation 13.144° E

METAR

NCAI 110900Z AUTO 35003KT //// ////// 25/25 Q1009

Decode

TAF

Not found

Departure Runways

ID Width Length Bearing (true) Bearing (mag) Surface Threshold Offset Overrun Length
14 102 ft / 31 m 6,008 ft / 1,831 m 154.20° 141.06° Asphalt 0 ft / 0 m 0 ft / 0 m
32 102 ft / 31 m 6,008 ft / 1,831 m 334.20° 321.06° Asphalt 0 ft / 0 m 0 ft / 0 m

NCRG

Details ICAO NCRG (RAR)
Name Rarotonga Intl
Region Cook Islands
Timezone Pacific/Rarotonga (UTC-10.0)
Stats Elevation 19 ft / 6 m (AMSL)
Location -21.202739° -159.805555°
Runways 1
Magnetic Variation 13.933° E

METAR

NCRG 110900Z 10010KT 8000 SHRA FEW006 BKN012 OVC090 24/23 Q1009

Decode

TAF

TAF NCRG 110512Z 1106/1206 04006KT 9999 -SHRA FEW008 SCT016 BKN080 TEMPO 1106/1112 5000 TSRA SCT010 FEW014CB

Decode

Destination Runways

ID Width Length Bearing (true) Bearing (mag) Surface Threshold Offset Overrun Length
08 150 ft / 46 m 7,629 ft / 2,325 m 89.99° 76.06° Concrete 400 ft / 122 m 100 ft / 30 m
26 150 ft / 46 m 7,629 ft / 2,325 m 269.98° 256.05° Concrete 0 ft / 0 m 0 ft / 0 m

Approach Navaids

Runway Type Ident Frequency Range Bearing (true) Bearing (mag) Slope Elevation
08 Localiser INO 109.90 MHz 18 nm / 33 km 89.79° 75.86° - 19 ft / 6 m (AMSL)
08 Glidescope INO 109.90 MHz 10 nm / 19 km 89.98° 76.05° 3.00° 19 ft / 6 m (AMSL)
08 DME INO 109.90 MHz 18 nm / 33 km - - - 19 ft / 6 m (AMSL)
26 Localiser IAV 110.30 MHz 18 nm / 33 km 270.19° 256.26° - 19 ft / 6 m (AMSL)
26 Glidescope IAV 110.30 MHz 10 nm / 19 km 269.98° 256.05° 3.00° 19 ft / 6 m (AMSL)
26 DME IAV 110.30 MHz 18 nm / 33 km - - - 19 ft / 6 m (AMSL)

Popular Alternatives